sensor_id;sensor_type;location;lat;lon;timestamp;pressure;altitude;pressure_sealevel;temperature;humidity
54554;BME280;40450;55.848;-3.572;2022-11-20T00:01:11;98253.27;;;3.33;93.94
54554;BME280;40450;55.848;-3.572;2022-11-20T00:03:39;98255.84;;;2.96;94.96
54554;BME280;40450;55.848;-3.572;2022-11-20T00:06:13;98248.93;;;2.71;95.64
54554;BME280;40450;55.848;-3.572;2022-11-20T00:08:40;98247.04;;;2.70;95.96
54554;BME280;40450;55.848;-3.572;2022-11-20T00:11:12;98248.13;;;2.51;96.41
54554;BME280;40450;55.848;-3.572;2022-11-20T00:13:41;98248.63;;;3.12;95.34
54554;BME280;40450;55.848;-3.572;2022-11-20T00:16:12;98248.41;;;2.56;96.64
54554;BME280;40450;55.848;-3.572;2022-11-20T00:18:41;98247.45;;;2.49;96.83
54554;BME280;40450;55.848;-3.572;2022-11-20T00:21:14;98246.60;;;2.31;97.57
54554;BME280;40450;55.848;-3.572;2022-11-20T00:23:43;98240.66;;;2.12;97.73
54554;BME280;40450;55.848;-3.572;2022-11-20T00:26:14;98232.46;;;2.90;96.69
54554;BME280;40450;55.848;-3.572;2022-11-20T00:28:44;98234.60;;;2.94;96.33
54554;BME280;40450;55.848;-3.572;2022-11-20T00:31:14;98238.13;;;2.23;97.31
54554;BME280;40450;55.848;-3.572;2022-11-20T00:33:45;98233.66;;;2.48;97.31
54554;BME280;40450;55.848;-3.572;2022-11-20T00:36:17;98229.84;;;3.25;96.07
54554;BME280;40450;55.848;-3.572;2022-11-20T00:38:45;98227.59;;;2.82;96.71
54554;BME280;40450;55.848;-3.572;2022-11-20T00:41:16;98213.60;;;2.63;96.90
54554;BME280;40450;55.848;-3.572;2022-11-20T00:43:46;98214.34;;;3.19;96.79
54554;BME280;40450;55.848;-3.572;2022-11-20T00:46:18;98214.31;;;3.23;96.34
54554;BME280;40450;55.848;-3.572;2022-11-20T00:48:48;98211.06;;;2.78;97.43
54554;BME280;40450;55.848;-3.572;2022-11-20T00:51:19;98211.12;;;2.39;97.71
54554;BME280;40450;55.848;-3.572;2022-11-20T00:53:48;98210.75;;;2.36;97.98
54554;BME280;40450;55.848;-3.572;2022-11-20T00:56:19;98204.37;;;1.93;98.75
54554;BME280;40450;55.848;-3.572;2022-11-20T00:58:49;98199.03;;;2.38;98.54
54554;BME280;40450;55.848;-3.572;2022-11-20T01:01:21;98188.91;;;2.46;97.92
54554;BME280;40450;55.848;-3.572;2022-11-20T01:03:51;98184.28;;;2.70;97.66
54554;BME280;40450;55.848;-3.572;2022-11-20T01:06:21;98177.46;;;2.33;97.82
54554;BME280;40450;55.848;-3.572;2022-11-20T01:08:52;98177.70;;;1.69;98.94
54554;BME280;40450;55.848;-3.572;2022-11-20T01:11:22;98176.53;;;1.80;98.56
54554;BME280;40450;55.848;-3.572;2022-11-20T01:13:53;98172.69;;;1.56;98.86
54554;BME280;40450;55.848;-3.572;2022-11-20T01:16:23;98168.61;;;1.70;99.17
54554;BME280;40450;55.848;-3.572;2022-11-20T01:18:53;98177.34;;;1.37;99.33
54554;BME280;40450;55.848;-3.572;2022-11-20T01:21:24;98171.12;;;1.91;98.79
54554;BME280;40450;55.848;-3.572;2022-11-20T01:23:52;98169.77;;;2.02;98.82
54554;BME280;40450;55.848;-3.572;2022-11-20T01:26:25;98171.13;;;1.98;98.35
54554;BME280;40450;55.848;-3.572;2022-11-20T01:28:54;98172.86;;;2.38;97.89
54554;BME280;40450;55.848;-3.572;2022-11-20T01:31:26;98174.26;;;2.57;97.65
54554;BME280;40450;55.848;-3.572;2022-11-20T01:33:55;98166.73;;;2.83;97.03
54554;BME280;40450;55.848;-3.572;2022-11-20T01:36:27;98163.60;;;2.34;97.54
54554;BME280;40450;55.848;-3.572;2022-11-20T01:38:56;98162.67;;;2.08;98.35
54554;BME280;40450;55.848;-3.572;2022-11-20T01:41:27;98159.71;;;1.83;98.51
54554;BME280;40450;55.848;-3.572;2022-11-20T01:43:56;98155.22;;;2.00;98.51
54554;BME280;40450;55.848;-3.572;2022-11-20T01:46:27;98147.00;;;2.08;98.38
54554;BME280;40450;55.848;-3.572;2022-11-20T01:48:58;98145.89;;;1.43;99.42
54554;BME280;40450;55.848;-3.572;2022-11-20T01:51:30;98137.16;;;1.03;99.83
54554;BME280;40450;55.848;-3.572;2022-11-20T01:54:00;98128.66;;;0.59;100.00
54554;BME280;40450;55.848;-3.572;2022-11-20T01:56:28;98123.12;;;0.44;100.00
54554;BME280;40450;55.848;-3.572;2022-11-20T01:59:00;98126.58;;;1.05;100.00
54554;BME280;40450;55.848;-3.572;2022-11-20T02:01:29;98132.22;;;1.06;100.00
54554;BME280;40450;55.848;-3.572;2022-11-20T02:04:00;98132.88;;;0.76;100.00
54554;BME280;40450;55.848;-3.572;2022-11-20T02:06:34;98135.27;;;0.71;100.00
54554;BME280;40450;55.848;-3.572;2022-11-20T02:09:01;98135.48;;;0.93;99.96
54554;BME280;40450;55.848;-3.572;2022-11-20T02:11:31;98136.25;;;1.29;99.54
54554;BME280;40450;55.848;-3.572;2022-11-20T02:14:01;98138.96;;;1.24;99.66
54554;BME280;40450;55.848;-3.572;2022-11-20T02:16:35;98136.20;;;0.84;100.00
54554;BME280;40450;55.848;-3.572;2022-11-20T02:19:06;98137.08;;;1.08;99.56
54554;BME280;40450;55.848;-3.572;2022-11-20T02:21:37;98137.40;;;1.45;99.13
54554;BME280;40450;55.848;-3.572;2022-11-20T02:24:06;98138.11;;;1.72;98.87
54554;BME280;40450;55.848;-3.572;2022-11-20T02:26:40;98136.60;;;1.91;98.35
54554;BME280;40450;55.848;-3.572;2022-11-20T02:29:04;98139.49;;;2.05;98.07
54554;BME280;40450;55.848;-3.572;2022-11-20T02:31:37;98137.61;;;2.65;97.41
54554;BME280;40450;55.848;-3.572;2022-11-20T02:34:05;98138.37;;;2.46;97.22
54554;BME280;40450;55.848;-3.572;2022-11-20T02:36:36;98140.02;;;2.39;97.86
54554;BME280;40450;55.848;-3.572;2022-11-20T02:39:06;98145.03;;;2.64;97.68
54554;BME280;40450;55.848;-3.572;2022-11-20T02:41:37;98148.30;;;2.88;97.05
54554;BME280;40450;55.848;-3.572;2022-11-20T02:44:07;98149.08;;;2.15;98.34
54554;BME280;40450;55.848;-3.572;2022-11-20T02:46:37;98148.52;;;2.51;98.37
54554;BME280;40450;55.848;-3.572;2022-11-20T02:49:08;98149.89;;;2.41;98.22
54554;BME280;40450;55.848;-3.572;2022-11-20T02:51:38;98148.59;;;2.67;97.67
54554;BME280;40450;55.848;-3.572;2022-11-20T02:54:08;98147.99;;;3.42;96.91
54554;BME280;40450;55.848;-3.572;2022-11-20T02:56:39;98141.88;;;3.72;96.44
54554;BME280;40450;55.848;-3.572;2022-11-20T02:59:10;98134.63;;;3.71;96.20
54554;BME280;40450;55.848;-3.572;2022-11-20T03:01:40;98126.05;;;3.12;96.86
54554;BME280;40450;55.848;-3.572;2022-11-20T03:04:10;98123.05;;;2.99;97.01
54554;BME280;40450;55.848;-3.572;2022-11-20T03:06:40;98122.74;;;3.54;96.62
54554;BME280;40450;55.848;-3.572;2022-11-20T03:09:12;98119.87;;;3.78;95.94
54554;BME280;40450;55.848;-3.572;2022-11-20T03:11:41;98113.76;;;4.15;94.99
54554;BME280;40450;55.848;-3.572;2022-11-20T03:14:12;98108.14;;;4.57;94.52
54554;BME280;40450;55.848;-3.572;2022-11-20T03:16:42;98103.62;;;4.87;93.49
54554;BME280;40450;55.848;-3.572;2022-11-20T03:19:13;98098.54;;;5.17;92.96
54554;BME280;40450;55.848;-3.572;2022-11-20T03:21:43;98095.26;;;5.05;92.83
54554;BME280;40450;55.848;-3.572;2022-11-20T03:24:14;98093.12;;;4.63;92.81
54554;BME280;40450;55.848;-3.572;2022-11-20T03:26:44;98088.31;;;4.31;93.80
54554;BME280;40450;55.848;-3.572;2022-11-20T03:29:14;98088.96;;;3.40;95.54
54554;BME280;40450;55.848;-3.572;2022-11-20T03:31:45;98087.34;;;3.56;95.08
54554;BME280;40450;55.848;-3.572;2022-11-20T03:34:15;98083.88;;;3.71;94.83
54554;BME280;40450;55.848;-3.572;2022-11-20T03:36:46;98083.55;;;3.62;95.22
54554;BME280;40450;55.848;-3.572;2022-11-20T03:39:16;98081.49;;;4.20;94.02
54554;BME280;40450;55.848;-3.572;2022-11-20T03:41:46;98073.70;;;4.63;93.28
54554;BME280;40450;55.848;-3.572;2022-11-20T03:44:17;98072.90;;;4.25;93.50
54554;BME280;40450;55.848;-3.572;2022-11-20T03:46:47;98063.97;;;4.54;92.94
54554;BME280;40450;55.848;-3.572;2022-11-20T03:49:18;98063.59;;;4.80;92.39
54554;BME280;40450;55.848;-3.572;2022-11-20T03:51:48;98063.57;;;4.74;92.59
54554;BME280;40450;55.848;-3.572;2022-11-20T03:54:24;98063.90;;;4.34;93.25
54554;BME280;40450;55.848;-3.572;2022-11-20T03:56:49;98063.01;;;4.45;93.15
54554;BME280;40450;55.848;-3.572;2022-11-20T03:59:19;98055.67;;;4.55;93.01
54554;BME280;40450;55.848;-3.572;2022-11-20T04:01:50;98051.37;;;4.47;93.01
54554;BME280;40450;55.848;-3.572;2022-11-20T04:04:20;98054.25;;;4.76;92.21
54554;BME280;40450;55.848;-3.572;2022-11-20T04:06:51;98057.79;;;4.37;93.25
54554;BME280;40450;55.848;-3.572;2022-11-20T04:09:21;98057.90;;;4.89;92.31
54554;BME280;40450;55.848;-3.572;2022-11-20T04:11:52;98051.48;;;4.60;92.89
54554;BME280;40450;55.848;-3.572;2022-11-20T04:14:22;98052.84;;;3.85;94.33
54554;BME280;40450;55.848;-3.572;2022-11-20T04:16:53;98050.13;;;3.82;94.41
54554;BME280;40450;55.848;-3.572;2022-11-20T04:19:23;98046.06;;;3.93;94.12
54554;BME280;40450;55.848;-3.572;2022-11-20T04:21:53;98038.89;;;3.96;94.37
54554;BME280;40450;55.848;-3.572;2022-11-20T04:24:24;98036.72;;;4.69;93.04
54554;BME280;40450;55.848;-3.572;2022-11-20T04:26:54;98033.90;;;4.65;92.95
54554;BME280;40450;55.848;-3.572;2022-11-20T04:29:25;98037.92;;;4.37;93.21
54554;BME280;40450;55.848;-3.572;2022-11-20T04:31:55;98038.14;;;4.32;93.46
54554;BME280;40450;55.848;-3.572;2022-11-20T04:34:26;98038.40;;;4.48;93.03
54554;BME280;40450;55.848;-3.572;2022-11-20T04:36:56;98041.28;;;4.33;93.31
54554;BME280;40450;55.848;-3.572;2022-11-20T04:39:27;98041.97;;;4.33;93.52
54554;BME280;40450;55.848;-3.572;2022-11-20T04:41:57;98035.72;;;4.48;93.20
54554;BME280;40450;55.848;-3.572;2022-11-20T04:44:27;98029.51;;;4.28;93.39
54554;BME280;40450;55.848;-3.572;2022-11-20T04:46:58;98032.36;;;3.23;95.19
54554;BME280;40450;55.848;-3.572;2022-11-20T04:49:28;98028.88;;;3.29;95.34
54554;BME280;40450;55.848;-3.572;2022-11-20T04:51:58;98024.33;;;3.24;95.72
54554;BME280;40450;55.848;-3.572;2022-11-20T04:54:29;98021.83;;;3.58;95.04
54554;BME280;40450;55.848;-3.572;2022-11-20T04:56:59;98016.65;;;3.84;93.98
54554;BME280;40450;55.848;-3.572;2022-11-20T04:59:30;98018.58;;;3.42;94.93
54554;BME280;40450;55.848;-3.572;2022-11-20T05:02:00;98017.13;;;3.81;94.03
54554;BME280;40450;55.848;-3.572;2022-11-20T05:04:30;98017.50;;;4.02;93.95
54554;BME280;40450;55.848;-3.572;2022-11-20T05:07:01;98021.18;;;3.92;93.70
54554;BME280;40450;55.848;-3.572;2022-11-20T05:09:31;98024.11;;;4.15;93.48
54554;BME280;40450;55.848;-3.572;2022-11-20T05:12:02;98024.67;;;4.47;92.99
54554;BME280;40450;55.848;-3.572;2022-11-20T05:14:32;98021.20;;;4.25;92.69
54554;BME280;40450;55.848;-3.572;2022-11-20T05:17:02;98017.20;;;4.87;91.43
54554;BME280;40450;55.848;-3.572;2022-11-20T05:19:33;98017.51;;;4.51;91.93
54554;BME280;40450;55.848;-3.572;2022-11-20T05:22:04;98016.46;;;4.66;91.70
54554;BME280;40450;55.848;-3.572;2022-11-20T05:24:34;98015.89;;;4.78;91.37
54554;BME280;40450;55.848;-3.572;2022-11-20T05:27:04;98012.06;;;4.49;91.97
54554;BME280;40450;55.848;-3.572;2022-11-20T05:29:35;98007.80;;;4.58;91.49
54554;BME280;40450;55.848;-3.572;2022-11-20T05:32:05;98007.05;;;4.58;91.40
54554;BME280;40450;55.848;-3.572;2022-11-20T05:34:36;98004.70;;;4.47;91.61
54554;BME280;40450;55.848;-3.572;2022-11-20T05:37:06;98002.04;;;4.70;90.83
54554;BME280;40450;55.848;-3.572;2022-11-20T05:39:36;98001.27;;;4.59;91.02
54554;BME280;40450;55.848;-3.572;2022-11-20T05:42:07;98001.81;;;4.58;91.28
54554;BME280;40450;55.848;-3.572;2022-11-20T05:44:37;98002.48;;;5.36;90.17
54554;BME280;40450;55.848;-3.572;2022-11-20T05:47:07;98003.32;;;5.22;89.97
54554;BME280;40450;55.848;-3.572;2022-11-20T05:49:38;98001.36;;;4.95;90.55
54554;BME280;40450;55.848;-3.572;2022-11-20T05:52:08;97999.83;;;5.50;89.62
54554;BME280;40450;55.848;-3.572;2022-11-20T05:54:39;98004.51;;;4.97;90.75
54554;BME280;40450;55.848;-3.572;2022-11-20T05:57:09;98005.25;;;5.00;90.69
54554;BME280;40450;55.848;-3.572;2022-11-20T05:59:40;98003.93;;;5.11;90.64
54554;BME280;40450;55.848;-3.572;2022-11-20T06:02:10;98005.27;;;5.08;90.71
54554;BME280;40450;55.848;-3.572;2022-11-20T06:04:41;98007.01;;;4.87;91.33
54554;BME280;40450;55.848;-3.572;2022-11-20T06:07:11;98005.12;;;5.24;90.73
54554;BME280;40450;55.848;-3.572;2022-11-20T06:09:42;98010.59;;;5.21;91.07
54554;BME280;40450;55.848;-3.572;2022-11-20T06:12:12;98016.52;;;4.58;92.69
54554;BME280;40450;55.848;-3.572;2022-11-20T06:14:42;98021.71;;;4.53;92.69
54554;BME280;40450;55.848;-3.572;2022-11-20T06:17:13;98027.36;;;5.31;91.13
54554;BME280;40450;55.848;-3.572;2022-11-20T06:19:43;98031.15;;;5.38;91.06
54554;BME280;40450;55.848;-3.572;2022-11-20T06:22:14;98026.22;;;4.57;92.54
54554;BME280;40450;55.848;-3.572;2022-11-20T06:24:44;98018.13;;;5.09;91.98
54554;BME280;40450;55.848;-3.572;2022-11-20T06:27:15;98017.20;;;5.06;91.93
54554;BME280;40450;55.848;-3.572;2022-11-20T06:29:45;98012.16;;;5.06;91.58
54554;BME280;40450;55.848;-3.572;2022-11-20T06:32:15;98011.30;;;4.61;92.68
54554;BME280;40450;55.848;-3.572;2022-11-20T06:34:46;98003.33;;;4.16;93.86
54554;BME280;40450;55.848;-3.572;2022-11-20T06:37:16;97998.25;;;4.51;93.31
54554;BME280;40450;55.848;-3.572;2022-11-20T06:39:47;97994.94;;;4.49;93.27
54554;BME280;40450;55.848;-3.572;2022-11-20T06:42:17;97992.92;;;4.15;94.28
54554;BME280;40450;55.848;-3.572;2022-11-20T06:44:47;97988.93;;;4.50;93.31
54554;BME280;40450;55.848;-3.572;2022-11-20T06:47:18;97986.22;;;4.46;93.53
54554;BME280;40450;55.848;-3.572;2022-11-20T06:49:48;97987.96;;;4.60;92.75
54554;BME280;40450;55.848;-3.572;2022-11-20T06:52:19;97988.27;;;4.70;93.04
54554;BME280;40450;55.848;-3.572;2022-11-20T06:54:49;97993.72;;;4.93;92.54
54554;BME280;40450;55.848;-3.572;2022-11-20T06:57:19;97998.08;;;4.36;93.41
54554;BME280;40450;55.848;-3.572;2022-11-20T06:59:50;97997.24;;;4.00;94.42
54554;BME280;40450;55.848;-3.572;2022-11-20T07:02:20;98002.95;;;3.23;96.19
54554;BME280;40450;55.848;-3.572;2022-11-20T07:04:51;98004.21;;;3.03;96.82
54554;BME280;40450;55.848;-3.572;2022-11-20T07:07:21;98007.24;;;2.66;97.78
54554;BME280;40450;55.848;-3.572;2022-11-20T07:09:52;98006.36;;;3.22;96.96
54554;BME280;40450;55.848;-3.572;2022-11-20T07:12:22;98007.46;;;3.58;96.46
54554;BME280;40450;55.848;-3.572;2022-11-20T07:14:52;98008.10;;;3.51;96.20
54554;BME280;40450;55.848;-3.572;2022-11-20T07:17:23;98012.93;;;2.95;97.27
54554;BME280;40450;55.848;-3.572;2022-11-20T07:19:53;98012.40;;;3.02;97.35
54554;BME280;40450;55.848;-3.572;2022-11-20T07:22:24;98007.22;;;3.57;96.60
54554;BME280;40450;55.848;-3.572;2022-11-20T07:24:54;98003.95;;;4.14;95.87
54554;BME280;40450;55.848;-3.572;2022-11-20T07:27:24;98008.24;;;3.71;96.13
54554;BME280;40450;55.848;-3.572;2022-11-20T07:29:55;98011.68;;;4.05;95.57
54554;BME280;40450;55.848;-3.572;2022-11-20T07:32:26;98022.85;;;3.63;95.82
54554;BME280;40450;55.848;-3.572;2022-11-20T07:34:56;98024.62;;;3.46;96.34
54554;BME280;40450;55.848;-3.572;2022-11-20T07:37:26;98019.46;;;4.38;94.77
54554;BME280;40450;55.848;-3.572;2022-11-20T07:39:57;98016.63;;;4.86;93.50
54554;BME280;40450;55.848;-3.572;2022-11-20T07:42:27;98019.39;;;4.25;94.43
54554;BME280;40450;55.848;-3.572;2022-11-20T07:44:58;98019.25;;;4.50;94.18
54554;BME280;40450;55.848;-3.572;2022-11-20T07:47:28;98020.60;;;4.35;94.59
54554;BME280;40450;55.848;-3.572;2022-11-20T07:49:58;98023.10;;;4.15;95.14
54554;BME280;40450;55.848;-3.572;2022-11-20T07:52:29;98032.34;;;4.19;95.03
54554;BME280;40450;55.848;-3.572;2022-11-20T07:54:59;98032.86;;;4.58;94.51
54554;BME280;40450;55.848;-3.572;2022-11-20T07:57:29;98031.83;;;5.67;92.41
54554;BME280;40450;55.848;-3.572;2022-11-20T08:00:00;98033.12;;;6.91;89.58
54554;BME280;40450;55.848;-3.572;2022-11-20T08:02:30;98040.79;;;7.66;88.85
54554;BME280;40450;55.848;-3.572;2022-11-20T08:05:01;98042.34;;;8.76;90.20
54554;BME280;40450;55.848;-3.572;2022-11-20T08:07:36;98040.71;;;9.73;89.00
54554;BME280;40450;55.848;-3.572;2022-11-20T08:10:03;98044.94;;;9.64;82.90
54554;BME280;40450;55.848;-3.572;2022-11-20T08:12:32;98042.68;;;8.85;82.25
54554;BME280;40450;55.848;-3.572;2022-11-20T08:15:05;98044.71;;;7.98;84.17
54554;BME280;40450;55.848;-3.572;2022-11-20T08:17:34;98040.22;;;7.15;86.63
54554;BME280;40450;55.848;-3.572;2022-11-20T08:22:34;98036.59;;;6.19;88.08
54554;BME280;40450;55.848;-3.572;2022-11-20T08:25:05;98030.78;;;4.77;90.17
54554;BME280;40450;55.848;-3.572;2022-11-20T08:27:35;98030.80;;;4.37;91.71
54554;BME280;40450;55.848;-3.572;2022-11-20T08:30:06;98023.90;;;4.57;91.22
54554;BME280;40450;55.848;-3.572;2022-11-20T08:32:35;98021.46;;;5.21;89.48
54554;BME280;40450;55.848;-3.572;2022-11-20T08:35:06;98020.50;;;5.51;89.03
54554;BME280;40450;55.848;-3.572;2022-11-20T08:37:36;98026.00;;;6.28;88.12
54554;BME280;40450;55.848;-3.572;2022-11-20T08:40:08;98025.96;;;6.75;85.89
54554;BME280;40450;55.848;-3.572;2022-11-20T08:42:37;98032.42;;;7.18;84.27
54554;BME280;40450;55.848;-3.572;2022-11-20T08:45:08;98035.29;;;7.38;84.48
54554;BME280;40450;55.848;-3.572;2022-11-20T08:47:37;98034.36;;;7.41;85.03
54554;BME280;40450;55.848;-3.572;2022-11-20T08:50:08;98036.70;;;7.69;83.52
54554;BME280;40450;55.848;-3.572;2022-11-20T08:52:39;98036.25;;;7.69;83.86
54554;BME280;40450;55.848;-3.572;2022-11-20T08:55:09;98034.55;;;7.22;85.25
54554;BME280;40450;55.848;-3.572;2022-11-20T08:57:39;98034.66;;;6.45;87.17
54554;BME280;40450;55.848;-3.572;2022-11-20T09:00:11;98040.20;;;5.73;89.43
54554;BME280;40450;55.848;-3.572;2022-11-20T09:02:40;98041.56;;;5.68;89.66
54554;BME280;40450;55.848;-3.572;2022-11-20T09:05:10;98043.63;;;5.79;89.57
54554;BME280;40450;55.848;-3.572;2022-11-20T09:07:41;98043.29;;;5.66;90.20
54554;BME280;40450;55.848;-3.572;2022-11-20T09:10:11;98046.75;;;5.18;91.52
54554;BME280;40450;55.848;-3.572;2022-11-20T09:12:41;98050.88;;;5.91;89.90
54554;BME280;40450;55.848;-3.572;2022-11-20T09:15:12;98054.10;;;5.24;91.15
54554;BME280;40450;55.848;-3.572;2022-11-20T09:17:43;98053.72;;;6.28;89.67
54554;BME280;40450;55.848;-3.572;2022-11-20T09:20:14;98054.05;;;6.99;87.71
54554;BME280;40450;55.848;-3.572;2022-11-20T09:22:43;98050.77;;;7.15;86.58
54554;BME280;40450;55.848;-3.572;2022-11-20T09:25:14;98054.33;;;6.56;87.70
54554;BME280;40450;55.848;-3.572;2022-11-20T09:27:44;98053.03;;;6.48;87.65
54554;BME280;40450;55.848;-3.572;2022-11-20T09:30:15;98053.06;;;5.88;90.06
54554;BME280;40450;55.848;-3.572;2022-11-20T09:32:45;98048.21;;;4.83;90.96
54554;BME280;40450;55.848;-3.572;2022-11-20T09:35:15;98045.89;;;4.38;91.43
54554;BME280;40450;55.848;-3.572;2022-11-20T09:37:46;98047.30;;;4.78;91.67
54554;BME280;40450;55.848;-3.572;2022-11-20T09:40:20;98053.03;;;4.71;91.69
54554;BME280;40450;55.848;-3.572;2022-11-20T09:42:52;98056.02;;;5.10;91.39
54554;BME280;40450;55.848;-3.572;2022-11-20T09:45:23;98055.97;;;3.80;93.84
54554;BME280;40450;55.848;-3.572;2022-11-20T09:47:58;98057.25;;;3.11;95.48
54554;BME280;40450;55.848;-3.572;2022-11-20T09:50:25;98051.18;;;3.95;94.56
54554;BME280;40450;55.848;-3.572;2022-11-20T09:52:56;98048.29;;;4.13;94.29
54554;BME280;40450;55.848;-3.572;2022-11-20T09:55:19;98045.39;;;5.22;92.33
54554;BME280;40450;55.848;-3.572;2022-11-20T09:57:51;98045.29;;;5.23;91.34
54554;BME280;40450;55.848;-3.572;2022-11-20T10:00:19;98046.18;;;5.03;92.04
54554;BME280;40450;55.848;-3.572;2022-11-20T10:02:55;98041.10;;;4.98;92.44
54554;BME280;40450;55.848;-3.572;2022-11-20T10:05:24;98040.14;;;4.44;93.75
54554;BME280;40450;55.848;-3.572;2022-11-20T10:07:55;98045.46;;;3.90;95.28
54554;BME280;40450;55.848;-3.572;2022-11-20T10:10:33;98036.55;;;4.89;93.83
54554;BME280;40450;55.848;-3.572;2022-11-20T10:13:02;98038.22;;;5.25;93.49
54554;BME280;40450;55.848;-3.572;2022-11-20T10:15:31;98044.17;;;5.39;93.31
54554;BME280;40450;55.848;-3.572;2022-11-20T10:18:04;98044.10;;;5.20;93.62
54554;BME280;40450;55.848;-3.572;2022-11-20T10:20:29;98044.28;;;5.21;94.13
54554;BME280;40450;55.848;-3.572;2022-11-20T10:23:04;98040.17;;;5.25;93.64
54554;BME280;40450;55.848;-3.572;2022-11-20T10:25:26;98039.14;;;5.15;93.81
54554;BME280;40450;55.848;-3.572;2022-11-20T10:28:05;98037.97;;;5.59;93.40
54554;BME280;40450;55.848;-3.572;2022-11-20T10:30:24;98031.65;;;6.37;92.23
54554;BME280;40450;55.848;-3.572;2022-11-20T10:32:59;98037.18;;;4.97;93.99
54554;BME280;40450;55.848;-3.572;2022-11-20T10:35:28;98036.90;;;5.57;93.96
54554;BME280;40450;55.848;-3.572;2022-11-20T10:38:00;98032.54;;;6.51;92.40
54554;BME280;40450;55.848;-3.572;2022-11-20T10:40:31;98026.74;;;6.45;91.97
54554;BME280;40450;55.848;-3.572;2022-11-20T10:42:58;98030.56;;;6.97;90.19
54554;BME280;40450;55.848;-3.572;2022-11-20T10:45:36;98034.85;;;7.38;88.53
54554;BME280;40450;55.848;-3.572;2022-11-20T10:48:08;98037.53;;;7.83;88.65
54554;BME280;40450;55.848;-3.572;2022-11-20T10:50:28;98042.88;;;6.79;89.76
54554;BME280;40450;55.848;-3.572;2022-11-20T10:53:05;98051.33;;;4.78;94.59
54554;BME280;40450;55.848;-3.572;2022-11-20T10:55:33;98043.84;;;6.25;90.64
54554;BME280;40450;55.848;-3.572;2022-11-20T10:58:03;98047.76;;;4.65;93.79
54554;BME280;40450;55.848;-3.572;2022-11-20T11:00:31;98048.57;;;4.39;93.49
54554;BME280;40450;55.848;-3.572;2022-11-20T11:03:00;98050.63;;;6.14;91.63
54554;BME280;40450;55.848;-3.572;2022-11-20T11:05:36;98043.70;;;6.85;88.13
54554;BME280;40450;55.848;-3.572;2022-11-20T11:08:00;98042.45;;;7.53;86.43
54554;BME280;40450;55.848;-3.572;2022-11-20T11:10:36;98042.92;;;8.51;85.07
54554;BME280;40450;55.848;-3.572;2022-11-20T11:13:02;98039.01;;;8.64;84.44
54554;BME280;40450;55.848;-3.572;2022-11-20T11:15:38;98043.84;;;8.78;82.77
54554;BME280;40450;55.848;-3.572;2022-11-20T11:18:02;98036.95;;;9.26;82.33
54554;BME280;40450;55.848;-3.572;2022-11-20T11:20:32;98034.03;;;9.35;82.91
54554;BME280;40450;55.848;-3.572;2022-11-20T11:23:02;98033.56;;;9.54;80.75
54554;BME280;40450;55.848;-3.572;2022-11-20T11:25:35;98038.12;;;10.06;81.41
54554;BME280;40450;55.848;-3.572;2022-11-20T11:28:17;98040.38;;;9.68;81.34
54554;BME280;40450;55.848;-3.572;2022-11-20T11:30:41;98035.74;;;9.83;80.78
54554;BME280;40450;55.848;-3.572;2022-11-20T11:33:08;98035.04;;;9.33;81.09
54554;BME280;40450;55.848;-3.572;2022-11-20T11:35:44;98034.98;;;9.11;82.51
54554;BME280;40450;55.848;-3.572;2022-11-20T11:38:11;98038.15;;;9.25;81.54
54554;BME280;40450;55.848;-3.572;2022-11-20T11:40:39;98031.57;;;9.26;80.97
54554;BME280;40450;55.848;-3.572;2022-11-20T11:45:36;98040.89;;;8.89;80.96
54554;BME280;40450;55.848;-3.572;2022-11-20T11:48:09;98044.86;;;8.70;81.55
54554;BME280;40450;55.848;-3.572;2022-11-20T11:50:37;98045.70;;;8.40;82.12
54554;BME280;40450;55.848;-3.572;2022-11-20T11:53:11;98043.73;;;7.22;84.77
54554;BME280;40450;55.848;-3.572;2022-11-20T11:55:42;98044.23;;;7.50;84.91
54554;BME280;40450;55.848;-3.572;2022-11-20T11:58:16;98046.83;;;8.34;82.97
54554;BME280;40450;55.848;-3.572;2022-11-20T12:00:45;98046.93;;;7.77;82.43
54554;BME280;40450;55.848;-3.572;2022-11-20T12:03:13;98045.94;;;7.32;84.31
54554;BME280;40450;55.848;-3.572;2022-11-20T12:05:43;98046.34;;;7.53;84.51
54554;BME280;40450;55.848;-3.572;2022-11-20T12:08:15;98048.64;;;7.69;83.77
54554;BME280;40450;55.848;-3.572;2022-11-20T12:10:45;98046.46;;;7.71;83.71
54554;BME280;40450;55.848;-3.572;2022-11-20T12:13:20;98044.53;;;7.09;85.37
54554;BME280;40450;55.848;-3.572;2022-11-20T12:15:44;98047.80;;;6.45;87.48
54554;BME280;40450;55.848;-3.572;2022-11-20T12:18:15;98049.54;;;6.97;87.27
54554;BME280;40450;55.848;-3.572;2022-11-20T12:20:45;98050.96;;;6.47;87.96
54554;BME280;40450;55.848;-3.572;2022-11-20T12:23:18;98058.28;;;6.15;89.18
54554;BME280;40450;55.848;-3.572;2022-11-20T12:25:47;98060.48;;;5.65;90.14
54554;BME280;40450;55.848;-3.572;2022-11-20T12:28:22;98060.92;;;5.24;91.67
54554;BME280;40450;55.848;-3.572;2022-11-20T12:30:53;98061.94;;;5.55;91.88
54554;BME280;40450;55.848;-3.572;2022-11-20T12:33:24;98057.85;;;4.60;91.98
54554;BME280;40450;55.848;-3.572;2022-11-20T12:40:52;98056.76;;;4.28;93.79
54554;BME280;40450;55.848;-3.572;2022-11-20T12:43:20;98053.69;;;4.66;92.46
54554;BME280;40450;55.848;-3.572;2022-11-20T12:45:57;98053.94;;;5.09;91.22
54554;BME280;40450;55.848;-3.572;2022-11-20T12:48:29;98050.72;;;5.34;90.38
54554;BME280;40450;55.848;-3.572;2022-11-20T12:50:54;98050.69;;;4.95;90.76
54554;BME280;40450;55.848;-3.572;2022-11-20T12:53:26;98052.44;;;5.55;90.27
54554;BME280;40450;55.848;-3.572;2022-11-20T12:55:52;98047.81;;;4.76;91.33
54554;BME280;40450;55.848;-3.572;2022-11-20T12:58:24;98051.70;;;5.32;90.63
54554;BME280;40450;55.848;-3.572;2022-11-20T13:00:55;98047.20;;;5.28;90.71
54554;BME280;40450;55.848;-3.572;2022-11-20T13:03:29;98043.27;;;5.27;91.16
54554;BME280;40450;55.848;-3.572;2022-11-20T13:05:55;98036.39;;;5.68;90.77
54554;BME280;40450;55.848;-3.572;2022-11-20T13:08:21;98034.30;;;6.22;89.70
54554;BME280;40450;55.848;-3.572;2022-11-20T13:10:57;98032.03;;;6.41;89.62
54554;BME280;40450;55.848;-3.572;2022-11-20T13:13:25;98032.93;;;6.34;88.76
54554;BME280;40450;55.848;-3.572;2022-11-20T13:15:55;98029.91;;;6.07;89.41
54554;BME280;40450;55.848;-3.572;2022-11-20T13:18:21;98032.07;;;6.39;89.33
54554;BME280;40450;55.848;-3.572;2022-11-20T13:20:52;98035.11;;;6.63;89.23
54554;BME280;40450;55.848;-3.572;2022-11-20T13:23:25;98036.20;;;7.08;88.94
54554;BME280;40450;55.848;-3.572;2022-11-20T13:28:27;98039.74;;;7.42;87.39